Tiempo atmosférico en la estación meteorológica de Oroz-Betelu/Orotz-Betelu, Navarra (635 m.)



Fecha
DESCASC
Temp. máxima en grados centígrados (hora)
DESCASC
Temp. mínima en grados centígrados (hora)
DESCASC
Temp. media en grados centígrados
DESCASC
Racha de viento máxima en m/sg (hora)
DESCASC
Velocidad máxima media en intervalos de 10 minutos(hora)
DESCASC
Precipitaciones diarias en mm
DESCASC
Precipitaciones de 00:00 a 06:00 en mm
DESCASC
Precipitaciones de 06:00 a 12:00 en mm
DESCASC
Precipitaciones de 12:00 a 18:00 en mm
DESCASC
Precipitaciones de 18:00 a 24:00 en mm
DESCASC
16-01-2020 13.5 (15:00) -1.4 (05:40) 6.1 14.44 (16:50) 9.44 (16:00) 0 0 0 0 0
15-01-2020 10.5 (13:40) 1.5 (23:50) 6 13.61 (00:10) 8.06 (00:10) 0 0 0 0 0
14-01-2020 10.6 (14:30) -2.4 (01:00) 4.1 15.83 (23:20) 10 (23:10) 0 0 0 0 0
13-01-2020 10.5 (16:10) -4.2 (08:30) 3.2 6.67 (15:20) 4.17 (15:20) 0 0 0 0 0
12-01-2020 12 (14:20) -3.7 (-00:0) 4.1 8.61 (11:50) 5.56 (15:10) 0 0 0 0 0
11-01-2020 11.8 (14:00) -1.9 (-00:0) 5 13.89 (05:40) 8.06 (06:40) 0 0 0 0 0
10-01-2020 7 (16:30) 3.2 (00:00) 5.1 10.28 (15:00) 5.28 (14:40) 3.8 0.2 2.6 0.6 0.4
09-01-2020 12.6 (14:40) -1.2 (-00:0) 5.7 10.83 (15:20) 7.5 (15:20) 1 0 0 0 1
08-01-2020 15.5 (14:00) 1 (00:00) 8.3 13.33 (05:40) 7.22 (06:40) 0 0 0 0 0
07-01-2020 16.2 (14:20) 0.7 (00:00) 8.5 10 (19:10) 5.56 (15:10) 0 0 0 0 0
06-01-2020 11.9 (14:50) -4.2 (-00:0) 3.8 10 (21:10) 5 (21:20) 0 0 0 0 0
05-01-2020 15.9 (13:50) -1 (-00:0) 7.4 15.83 (01:20) 10 (07:00) 0 0 0 0 0
04-01-2020 8.8 (12:50) 5.3 (00:00) 7.1 13.33 (15:20) 8.89 (15:30) 0 0 0 0 0
03-01-2020 11.1 (14:20) -2.7 (-00:0) 4.2 8.89 (15:50) 6.11 (16:10) 0 0 0 0 0
02-01-2020 7.3 (14:20) -4.1 (-00:0) 1.6 4.72 (16:10) 3.61 (15:50) 0 0 0 0 0
01-01-2020 8.5 (15:20) -4.2 (-00:0) 2.2 3.89 (16:50) 2.78 (16:50) 0 0 0 0 0
31-12-2019 2.6 (15:10) -2.2 (-00:0) 0.2 4.72 (14:40) 2.78 (14:40) 0 0 0 0 0
30-12-2019 -- (--) -- (--) -- -- (--) -- (--) -- 0 0 0 --
29-12-2019 9.8 (13:50) -1.8 (-00:0) 4 4.44 (15:50) 2.78 (15:50) 0 0 0 0 0
28-12-2019 17.9 (13:40) 1 (00:00) 9.4 9.72 (12:40) 6.39 (14:30) 0 0 0 0 0
27-12-2019 15.1 (16:10) -1.2 (-00:0) 7 13.06 (18:00) 8.06 (18:00) 0 0 0 0 0
26-12-2019 10.7 (07:50) 1.7 (00:00) 6.2 10.83 (15:10) 7.22 (08:00) 0 0 0 0 0
25-12-2019 14.5 (15:30) 2.4 (00:00) 8.5 4.72 (06:40) 3.06 (06:40) 0 0 0 0 0
24-12-2019 14.4 (15:20) 4.1 (00:00) 9.2 3.89 (15:40) 2.22 (09:30) 0.2 0 0 0.2 0
23-12-2019 11.1 (14:30) 4.5 (00:00) 7.8 7.22 (03:10) 3.61 (15:00) 2.2 1.6 0.2 0 0.4
22-12-2019 10.4 (00:00) 6.1 (00:00) 8.2 10.83 (02:50) 5.56 (02:40) 12.8 6.4 1 1 4.4
21-12-2019 12.9 (16:30) 3.4 (00:00) 8.1 21.39 (19:20) 11.67 (19:20) 12.2 1.6 0.6 5.2 4.8
20-12-2019 13.6 (03:10) 7.1 (00:00) 10.4 28.33 (03:10) 15 (03:10) 34.2 15.8 0.4 4.8 13.2

Gráficas

Temp. máximas Temp. mínimas Temp. medias Precipitaciones Rachas de viento máximas Velocidades máximas media en intervalos de 10 minutos

Datos horarios

Fecha y hora oficial Temperatura (ºC) Velocidad del viento (km/h) Dirección del viento Racha (km/h) Dirección de racha Precipitación (mm) Presión (hPa) Tendencia (hPa) Humedad (%)
2020-01-18 23:00:00 4 10 Este 21 Sudeste 2.2 -- -- 90
2020-01-18 22:00:00 4.6 6 Este 17 Este 5.2 -- -- 94
2020-01-18 21:00:00 5.2 3 Este 5 Sudeste 0.8 -- -- 96
2020-01-18 20:00:00 5.6 0 Calma 6 Nordeste 1.8 -- -- 93
2020-01-18 19:00:00 6.3 5 Este 28 Oeste 0.8 -- -- 87
2020-01-18 18:00:00 8.1 15 Oeste 32 Oeste 0 -- -- 68
2020-01-18 17:00:00 8.9 17 Oeste 31 Oeste 0 -- -- 61
2020-01-18 16:00:00 9.3 10 Oeste 28 Oeste 0 -- -- 60
2020-01-18 15:00:00 9.2 20 Sudoeste 44 Sudoeste 0 -- -- 61
2020-01-18 14:00:00 9.3 19 Sudoeste 44 Sudoeste 0 -- -- 56
2020-01-18 13:00:00 7.2 12 Oeste 22 Oeste 0 -- -- 67
2020-01-18 12:00:00 3.7 3 Este 9 Nordeste 0 -- -- 96
2020-01-18 11:00:00 2.4 0 Calma 3 Sudoeste 0 -- -- 99
2020-01-18 10:00:00 1 0 Calma 4 Sudeste 0 -- -- 99
2020-01-18 09:00:00 0.2 0 Calma 5 Nordeste 0 -- -- 98
2020-01-18 08:00:00 0.5 0 Calma 5 Este 0 -- -- 98
2020-01-18 07:00:00 0.5 0 Calma 2 Norte 0 -- -- 98
2020-01-18 06:00:00 0.5 0 Calma 6 Nordeste 0 -- -- 98
2020-01-18 05:00:00 0.2 0 Calma 6 Oeste 0 -- -- 98
2020-01-18 04:00:00 -0.1 2 Noroeste 4 Sudoeste 0 -- -- 98
2020-01-18 03:00:00 -0.5 0 Calma 4 Sudeste 0 -- -- 97
2020-01-18 02:00:00 -0.1 0 Calma 4 Este 0 -- -- 97
2020-01-18 01:00:00 0.3 2 Nordeste 6 Sudoeste 0 -- -- 96
2020-01-18 00:00:00 0.8 2 Nordeste 5 Noroeste 0 -- -- 95
2020-01-17 23:00:00 1.4 0 Calma 9 Este 0 -- -- 95
2020-01-17 22:00:00 1.9 3 Sudeste 15 Nordeste 0 -- -- 93
2020-01-17 21:00:00 3.3 11 Nordeste 20 Este 0 -- -- 91
2020-01-17 20:00:00 3.4 2 Sudoeste 23 Sudeste 0 -- -- 88
2020-01-17 19:00:00 4.8 17 Nordeste 24 Nordeste 0 -- -- 83
2020-01-17 18:00:00 5.4 6 Este 12 Noroeste 0 -- -- 84
2020-01-17 17:00:00 6.9 4 Norte 12 Norte 0 -- -- 68
2020-01-17 16:00:00 7.1 13 Noroeste 27 Norte 0 -- -- 68
2020-01-17 15:00:00 7.1 9 Norte 27 Noroeste 0 -- -- 76
2020-01-17 14:00:00 7.7 14 Norte 32 Norte 0 -- -- 69
2020-01-17 13:00:00 7.6 6 Sur 10 Sudeste 0.2 -- -- 88
2020-01-17 12:00:00 5.8 0 Calma 8 Sudeste 2.4 -- -- 94
2020-01-17 11:00:00 5.1 11 Nordeste 20 Nordeste 2 -- -- 92
2020-01-17 10:00:00 7 5 Oeste 19 Sudoeste 0.6 -- -- 89
2020-01-17 09:00:00 7.3 11 Sudoeste 28 Oeste 2.2 -- -- 84
2020-01-17 08:00:00 9.2 14 Sudoeste 35 Sudoeste 0 -- -- 70
2020-01-17 07:00:00 9.1 23 Sudoeste 34 Sudoeste 0 -- -- 71
2020-01-17 06:00:00 9.2 16 Sur 29 Sur 0 -- -- 71
2020-01-17 05:00:00 9.5 19 Sudoeste 34 Sudoeste 0 -- -- 70
2020-01-17 04:00:00 9.9 15 Sudoeste 42 Sudoeste 0 -- -- 68
2020-01-17 03:00:00 10.1 17 Sudoeste 41 Sudoeste 0 -- -- 67
2020-01-17 02:00:00 10.3 30 Sudoeste 53 Sudoeste 0 -- -- 66
2020-01-17 01:00:00 11.1 26 Sudoeste 51 Sudoeste 0 -- -- 62
2020-01-17 00:00:00 11.3 30 Sudoeste 51 Sudoeste 0 -- -- 61
2020-01-16 23:00:00 11.9 24 Sudoeste 47 Sur 0 -- -- 60
2020-01-16 22:00:00 11.5 14 Sudoeste 44 Sudoeste 0 -- -- 63
2020-01-16 21:00:00 11.8 19 Sudoeste 49 Sudoeste 0 -- -- 65
2020-01-16 20:00:00 11.9 22 Sudoeste 41 Sudoeste 0 -- -- 66
2020-01-16 19:00:00 12.1 24 Sudoeste 46 Sudoeste 0 -- -- 66
2020-01-16 18:00:00 12.4 19 Sudoeste 49 Sudoeste 0 -- -- 64
2020-01-16 17:00:00 12.6 32 Sudoeste 52 Sudoeste 0 -- -- 65
2020-01-16 16:00:00 12.9 34 Sudoeste 49 Sudoeste 0 -- -- 63
2020-01-16 15:00:00 13.5 13 Oeste 40 Sudoeste 0 -- -- 61
2020-01-16 14:00:00 12.2 11 Oeste 43 Sur 0 -- -- 67
2020-01-16 13:00:00 11.8 14 Sudoeste 47 Sudoeste 0 -- -- 67
2020-01-16 12:00:00 11.6 11 Sudoeste 36 Sudoeste 0 -- -- 69
2020-01-16 11:00:00 5.8 3 Sudeste 10 Sudeste 0 -- -- 96
2020-01-16 10:00:00 0.9 3 Este 7 Nordeste 0 -- -- 100
2020-01-16 09:00:00 -0.7 0 Calma 6 Este 0 -- -- 99
2020-01-16 08:00:00 -0.9 0 Calma 5 Norte 0 -- -- 98
2020-01-16 07:00:00 -1.2 0 Calma 4 Sudeste 0 -- -- 98
2020-01-16 06:00:00 -1.2 0 Calma 4 Nordeste 0 -- -- 98
2020-01-16 05:00:00 -1 0 Calma 5 Nordeste 0 -- -- 97
2020-01-16 04:00:00 -1 2 Nordeste 4 Este 0 -- -- 97
2020-01-16 03:00:00 -0.9 3 Este 4 Nordeste 0 -- -- 97
2020-01-16 02:00:00 -0.1 0 Calma 4 Nordeste 0 -- -- 96
2020-01-16 01:00:00 0.7 0 Calma 5 Norte 0 -- -- 96
2020-01-16 00:00:00 1.5 2 Este 7 Este 0 -- -- 94
2020-01-15 23:00:00 2.1 2 Nordeste 6 Nordeste 0 -- -- 92
2020-01-15 22:00:00 4.1 0 Calma 8 Este 0 -- -- 87
2020-01-15 21:00:00 4.3 3 Nordeste 9 Este 0 -- -- 86
2020-01-15 20:00:00 6 3 Este 8 Este 0 -- -- 80
2020-01-15 19:00:00 7.4 3 Este 14 Oeste 0 -- -- 73
2020-01-15 18:00:00 9.5 11 Oeste 26 Sudoeste 0 -- -- 64
2020-01-15 17:00:00 9.8 10 Sudoeste 28 Sudoeste 0 -- -- 63
2020-01-15 16:00:00 10.3 13 Oeste 26 Oeste 0 -- -- 60
2020-01-15 15:00:00 10.3 10 Oeste 32 Oeste 0 -- -- 58
2020-01-15 14:00:00 10.3 23 Oeste 33 Oeste 0 -- -- 58
2020-01-15 13:00:00 9.9 21 Oeste 31 Oeste 0 -- -- 60
2020-01-15 12:00:00 9.4 12 Oeste 28 Oeste 0 -- -- 62
2020-01-15 11:00:00 8.2 14 Oeste 27 Oeste 0 -- -- 66
2020-01-15 10:00:00 4.5 6 Sudoeste 20 Norte 0 -- -- 78
2020-01-15 09:00:00 3.4 0 Calma 13 Sudoeste 0 -- -- 78
2020-01-15 08:00:00 5.3 8 Sudoeste 38 Oeste 0 -- -- 70
2020-01-15 07:00:00 5.7 10 Sudoeste 26 Oeste 0 -- -- 68
2020-01-15 06:00:00 6.1 22 Oeste 31 Oeste 0 -- -- 66
2020-01-15 05:00:00 8 24 Oeste 45 Oeste 0 -- -- 59
2020-01-15 04:00:00 7.5 16 Oeste 39 Oeste 0 -- -- 59
2020-01-15 03:00:00 6.8 16 Oeste 36 Oeste 0 -- -- 60
2020-01-15 02:00:00 6.4 10 Sudoeste 31 Oeste 0 -- -- 62
2020-01-15 01:00:00 7 18 Oeste 49 Oeste 0 -- -- 59
2020-01-15 00:00:00 7.2 19 Oeste 57 Oeste 0 -- -- 55
2020-01-14 23:00:00 5.9 29 Oeste 50 Oeste 0 -- -- 58
2020-01-14 22:00:00 1.6 2 Nordeste 8 Norte 0 -- -- 85
2020-01-14 21:00:00 0.8 0 Calma 5 Nordeste 0 -- -- 85
2020-01-14 20:00:00 1.9 0 Calma 9 Sudeste 0 -- -- 79
2020-01-14 19:00:00 4.1 0 Calma 12 Oeste 0 -- -- 67
2020-01-14 18:00:00 7.4 8 Sudoeste 31 Oeste 0 -- -- 54
2020-01-14 17:00:00 9.1 13 Sudoeste 28 Oeste 0 -- -- 48
2020-01-14 16:00:00 10.5 21 Oeste 41 Oeste 0 -- -- 46
2020-01-14 15:00:00 10.3 19 Oeste 28 Oeste 0 -- -- 48
2020-01-14 14:00:00 10.4 12 Oeste 29 Oeste 0 -- -- 47
2020-01-14 13:00:00 9.4 9 Oeste 27 Oeste 0 -- -- 51
2020-01-14 12:00:00 7.5 15 Oeste 26 Oeste 0 -- -- 58
2020-01-14 11:00:00 2.2 2 Nordeste 5 Oeste 0 -- -- 96
2020-01-14 10:00:00 -1.4 0 Calma 4 Nordeste 0 -- -- 97
2020-01-14 09:00:00 -1.9 0 Calma 4 Noroeste 0 -- -- 95
2020-01-14 08:00:00 -1.5 0 Calma 4 Noroeste 0 -- -- 95
2020-01-14 07:00:00 -0.9 0 Calma 7 Este 0 -- -- 96
2020-01-14 06:00:00 -0.7 2 Este 8 Sudoeste 0 -- -- 97
2020-01-14 05:00:00 -1.2 0 Calma 6 Noroeste 0 -- -- 97
2020-01-14 04:00:00 -1.6 0 Calma 8 Sudeste 0 -- -- 97
2020-01-14 03:00:00 -1.9 2 Este 6 Noroeste 0 -- -- 97
2020-01-14 02:00:00 -2.3 2 Norte 5 Noroeste 0 -- -- 96
2020-01-14 01:00:00 -2.4 0 Calma 3 Noroeste 0 -- -- 96
2020-01-14 00:00:00 -2 0 Calma 4 Este 0 -- -- 96
2020-01-13 23:00:00 -1.9 3 Nordeste 5 Este 0 -- -- 95
2020-01-13 22:00:00 -1.3 0 Calma 8 Este 0 -- -- 94
2020-01-13 21:00:00 -0.3 2 Este 4 Este 0 -- -- 92
2020-01-13 20:00:00 0.9 0 Calma 8 Oeste 0 -- -- 88
2020-01-13 19:00:00 2.4 0 Calma 14 Sudoeste 0 -- -- 84
2020-01-13 18:00:00 4.4 3 Sudeste 14 Sudoeste 0 -- -- 75
2020-01-13 17:00:00 7.6 8 Sudoeste 18 Sudoeste 0 -- -- 64
2020-01-13 16:00:00 10.2 7 Sudoeste 24 Sudoeste 0 -- -- 53
2020-01-13 15:00:00 8.9 9 Sudoeste 17 Sudoeste 0 -- -- 59
2020-01-13 14:00:00 7.5 2 Norte 6 Noroeste 0 -- -- 65
2020-01-13 13:00:00 4.8 3 Sudoeste 5 Sur 0 -- -- 75
2020-01-13 12:00:00 1.7 2 Sur 4 Oeste 0 -- -- 86
2020-01-13 11:00:00 -1.8 0 Calma 6 Sudeste 0 -- -- 94
2020-01-13 10:00:00 -3.5 2 Nordeste 5 Este 0 -- -- 95
2020-01-13 09:00:00 -4.2 0 Calma 6 Este 0 -- -- 94
2020-01-13 08:00:00 -4.1 3 Este 7 Este 0 -- -- 94
2020-01-13 07:00:00 -3.8 3 Este 5 Este 0 -- -- 95
2020-01-13 06:00:00 -3.8 0 Calma 4 Este 0 -- -- 95
2020-01-13 05:00:00 -3.3 3 Este 6 Este 0 -- -- 95
2020-01-13 04:00:00 -3.2 0 Calma 4 Nordeste 0 -- -- 95
2020-01-13 03:00:00 -3.1 0 Calma 4 Sudeste 0 -- -- 95
2020-01-13 02:00:00 -2.7 0 Calma 5 Este 0 -- -- 95
2020-01-13 01:00:00 -2.2 0 Calma 4 Este 0 -- -- 93
2020-01-13 00:00:00 -1.8 0 Calma 4 Este 0 -- -- 94
2020-01-12 23:00:00 -0.8 4 Este 7 Este 0 -- -- 92
2020-01-12 22:00:00 -0.2 0 Calma 4 Este 0 -- -- 90
2020-01-12 21:00:00 1.1 0 Calma 4 Sudoeste 0 -- -- 86
2020-01-12 20:00:00 3 3 Noroeste 6 Sudeste 0 -- -- 81
2020-01-12 19:00:00 5.4 3 Nordeste 26 Este 0 -- -- 75
2020-01-12 18:00:00 7.3 14 Nordeste 21 Nordeste 0 -- -- 67
2020-01-12 17:00:00 8.9 9 Nordeste 23 Nordeste 0 -- -- 58
2020-01-12 16:00:00 10.6 11 Nordeste 29 Nordeste 0 -- -- 48
2020-01-12 15:00:00 11.6 17 Nordeste 28 Nordeste 0 -- -- 41
2020-01-12 14:00:00 11.6 15 Nordeste 30 Este 0 -- -- 38
2020-01-12 13:00:00 11.2 12 Este 29 Este 0 -- -- 40
2020-01-12 12:00:00 8.7 17 Este 31 Este 0 -- -- 44
2020-01-12 11:00:00 -1.8 2 Este 8 Este 0 -- -- 90
2020-01-12 10:00:00 -3.2 3 Este 6 Este 0 -- -- 93
2020-01-12 09:00:00 -2.9 4 Este 16 Este 0 -- -- 91
2020-01-12 08:00:00 -3.2 2 Este 10 Este 0 -- -- 93
2020-01-12 07:00:00 -3.5 0 Calma 14 Nordeste 0 -- -- 94
2020-01-12 06:00:00 -2.8 3 Este 10 Este 0 -- -- 96
2020-01-12 05:00:00 -3.5 3 Este 6 Nordeste 0 -- -- 97
2020-01-12 04:00:00 -3.3 0 Calma 5 Noroeste 0 -- -- 97
2020-01-12 03:00:00 -3.2 0 Calma 3 Norte 0 -- -- 96
2020-01-12 02:00:00 -2.6 0 Calma 3 Nordeste 0 -- -- 97
2020-01-12 01:00:00 -2.5 0 Calma 4 Nordeste 0 -- -- 96
2020-01-12 00:00:00 -1.9 0 Calma 4 Sudeste 0 -- -- 96
2020-01-11 23:00:00 -1.5 0 Calma 3 Este 0 -- -- 95
2020-01-11 22:00:00 -0.8 0 Calma 3 Norte 0 -- -- 94
2020-01-11 21:00:00 0.1 0 Calma 4 Nordeste 0 -- -- 93
2020-01-11 20:00:00 1.3 0 Calma 3 Sudeste 0 -- -- 90
2020-01-11 19:00:00 2.4 0 Calma 4 Este 0 -- -- 88
2020-01-11 18:00:00 4.7 0 Calma 5 Oeste 0 -- -- 82
2020-01-11 17:00:00 8 4 Oeste 12 Sudoeste 0 -- -- 66
2020-01-11 16:00:00 11.4 9 Sudoeste 17 Oeste 0 -- -- 55
2020-01-11 15:00:00 11.4 12 Sudoeste 18 Sudoeste 0 -- -- 53
2020-01-11 14:00:00 11.8 8 Sudoeste 16 Este 0 -- -- 46
2020-01-11 13:00:00 9.9 8 Sudeste 22 Este 0 -- -- 46
2020-01-11 12:00:00 7.9 12 Este 27 Este 0 -- -- 56
2020-01-11 11:00:00 4.7 7 Sudeste 40 Este 0 -- -- 67
2020-01-11 10:00:00 4.3 15 Este 33 Este 0 -- -- 72
2020-01-11 09:00:00 3.8 9 Este 33 Este 0 -- -- 74
2020-01-11 08:00:00 4.1 19 Este 36 Este 0 -- -- 73
2020-01-11 07:00:00 4.4 24 Este 47 Nordeste 0 -- -- 74
2020-01-11 06:00:00 4.5 23 Nordeste 50 Nordeste 0 -- -- 73
2020-01-11 05:00:00 4.4 26 Nordeste 39 Nordeste 0 -- -- 75
2020-01-11 04:00:00 1 2 Nordeste 6 Oeste 0 -- -- 93
2020-01-11 03:00:00 1.7 0 Calma 9 Sudoeste 0 -- -- 88
2020-01-11 02:00:00 3.3 6 Noroeste 19 Norte 0 -- -- 81
2020-01-11 01:00:00 4.7 8 Norte 26 Nordeste 0 -- -- 76
2020-01-11 00:00:00 5.2 14 Nordeste 29 Este 0 -- -- 75
2020-01-10 23:00:00 5.4 12 Nordeste 28 Nordeste 0 -- -- 76
2020-01-10 22:00:00 5.4 13 Nordeste 31 Nordeste 0 -- -- 76
2020-01-10 21:00:00 5.8 9 Este 30 Este 0 -- -- 79
2020-01-10 20:00:00 5.4 8 Nordeste 25 Nordeste 0.4 -- -- 86
2020-01-10 19:00:00 5.7 4 Nordeste 28 Nordeste 0 -- -- 85
2020-01-10 18:00:00 6.1 10 Nordeste 36 Nordeste 0 -- -- 83
2020-01-10 17:00:00 6.3 9 Nordeste 37 Nordeste 0.2 -- -- 82
2020-01-10 16:00:00 6.8 14 Nordeste 36 Nordeste 0 -- -- 77
2020-01-10 15:00:00 6.5 16 Nordeste 37 Norte 0 -- -- 79
2020-01-10 14:00:00 6.2 4 Nordeste 30 Nordeste 0.2 -- -- 85
2020-01-10 13:00:00 6 10 Este 22 Sudeste 0.2 -- -- 87
2020-01-10 12:00:00 6 7 Este 23 Nordeste 0.4 -- -- 86
2020-01-10 11:00:00 5.2 5 Este 12 Este 0.4 -- -- 91
2020-01-10 10:00:00 4.7 0 Calma 18 Este 0.6 -- -- 92
2020-01-10 09:00:00 3.3 3 Oeste 9 Norte 0.2 -- -- 95
2020-01-10 08:00:00 3.5 0 Calma 13 Norte 0.2 -- -- 93
2020-01-10 07:00:00 4.1 8 Este 21 Este 0.8 -- -- 87
2020-01-10 06:00:00 5.7 8 Este 28 Sudeste 0 -- -- 79
2020-01-10 05:00:00 5.1 4 Nordeste 20 Este 0 -- -- 85
2020-01-10 04:00:00 5.3 12 Este 31 Nordeste 0.2 -- -- 85
2020-01-10 03:00:00 6.1 10 Este 24 Sudeste 0 -- -- 82
2020-01-10 02:00:00 5.2 4 Nordeste 13 Sudeste 0 -- -- 91
2020-01-10 01:00:00 5.8 3 Este 26 Sudeste 0 -- -- 85
2020-01-10 00:00:00 5.8 6 Este 17 Este 0.4 -- -- 85
2020-01-09 23:00:00 6.5 6 Este 18 Este 0.2 -- -- 85
2020-01-09 22:00:00 6.4 3 Sur 9 Sur 0.2 -- -- 95
2020-01-09 21:00:00 6.8 0 Calma 10 Sudeste 0.2 -- -- 90
2020-01-09 20:00:00 7.2 0 Calma 13 Oeste 0 -- -- 86
2020-01-09 19:00:00 7.5 0 Calma 10 Sudeste 0 -- -- 81
2020-01-09 18:00:00 8.3 4 Sur 15 Oeste 0 -- -- 76
2020-01-09 17:00:00 9.9 5 Nordeste 19 Oeste 0 -- -- 69
2020-01-09 16:00:00 11.5 12 Oeste 39 Oeste 0 -- -- 64
2020-01-09 15:00:00 11.9 21 Oeste 31 Oeste 0 -- -- 60
2020-01-09 14:00:00 12.3 8 Sudoeste 28 Sudoeste 0 -- -- 58
2020-01-09 13:00:00 9 6 Sudoeste 14 Sudoeste 0 -- -- 81
2020-01-09 12:00:00 4.4 2 Oeste 5 Sudeste 0 -- -- 100
2020-01-09 11:00:00 0.2 0 Calma 4 Este 0 -- -- 100
2020-01-09 10:00:00 -0.7 0 Calma 4 Noroeste 0 -- -- 99
2020-01-09 09:00:00 -1 0 Calma 4 Sudeste 0 -- -- 99
2020-01-09 08:00:00 -1.2 0 Calma 3 Sudoeste 0 -- -- 99
2020-01-09 07:00:00 -0.9 0 Calma 0 Calma 0 -- -- 99
2020-01-09 06:00:00 -0.6 0 Calma 2 Sudeste 0 -- -- 99
2020-01-09 05:00:00 -0.7 0 Calma 3 Sudoeste 0 -- -- 98
2020-01-09 04:00:00 -0.4 0 Calma 2 Nordeste 0 -- -- 97
2020-01-09 03:00:00 -0.1 0 Calma 3 Norte 0 -- -- 98
2020-01-09 02:00:00 0.3 0 Calma 3 Nordeste 0 -- -- 97
2020-01-09 01:00:00 1 0 Calma 2 Este 0 -- -- 97
2020-01-09 00:00:00 1 0 Calma 3 Sudeste 0 -- -- 96
2020-01-08 23:00:00 1.8 0 Calma 3 Este 0 -- -- 95
2020-01-08 22:00:00 2.5 0 Calma 4 Este 0 -- -- 94
2020-01-08 21:00:00 3.5 0 Calma 3 Este 0 -- -- 93
2020-01-08 20:00:00 4.5 0 Calma 2 Sudeste 0 -- -- 89
2020-01-08 19:00:00 6.3 0 Calma 3 Este 0 -- -- 83
2020-01-08 18:00:00 8.6 0 Calma 5 Oeste 0 -- -- 74
2020-01-08 17:00:00 11.6 5 Oeste 16 Sudoeste 0 -- -- 64
2020-01-08 16:00:00 15.1 11 Oeste 22 Sudoeste 0 -- -- 51
2020-01-08 15:00:00 15.2 15 Oeste 24 Sudoeste 0 -- -- 54
2020-01-08 14:00:00 15.5 8 Sudoeste 19 Oeste 0 -- -- 58
2020-01-08 13:00:00 14.2 10 Sudoeste 28 Sudoeste 0 -- -- 63
2020-01-08 12:00:00 13.2 13 Sudoeste 20 Este 0 -- -- 65
2020-01-08 11:00:00 12.1 13 Este 27 Sudeste 0 -- -- 63
2020-01-08 10:00:00 11.4 10 Este 32 Sudeste 0 -- -- 67
2020-01-08 09:00:00 11 12 Este 37 Este 0 -- -- 68
2020-01-08 08:00:00 11.3 23 Sudeste 40 Este 0 -- -- 67
2020-01-08 07:00:00 11.1 23 Nordeste 37 Nordeste 0 -- -- 69
2020-01-08 06:00:00 11.2 15 Nordeste 48 Nordeste 0 -- -- 69
2020-01-08 05:00:00 11.7 15 Nordeste 39 Norte 0 -- -- 69
2020-01-08 04:00:00 11.5 13 Norte 41 Nordeste 0 -- -- 70
2020-01-08 03:00:00 11.6 21 Nordeste 40 Nordeste 0 -- -- 69
2020-01-08 02:00:00 11.7 18 Nordeste 43 Nordeste 0 -- -- 69
2020-01-08 01:00:00 11.4 17 Nordeste 31 Nordeste 0 -- -- 71
2020-01-08 00:00:00 11.3 16 Nordeste 27 Este 0 -- -- 71
2020-01-07 23:00:00 7.8 2 Este 10 Nordeste 0 -- -- 83
2020-01-07 22:00:00 8.7 0 Calma 16 Norte 0 -- -- 78
2020-01-07 21:00:00 9.1 5 Norte 14 Sudeste 0 -- -- 78
2020-01-07 20:00:00 10 3 Norte 36 Nordeste 0 -- -- 73
2020-01-07 19:00:00 11.6 14 Nordeste 34 Nordeste 0 -- -- 67
2020-01-07 18:00:00 13 14 Nordeste 23 Nordeste 0 -- -- 56
2020-01-07 17:00:00 14.1 13 Norte 28 Norte 0 -- -- 59
2020-01-07 16:00:00 15.6 15 Nordeste 30 Nordeste 0 -- -- 57
2020-01-07 15:00:00 16.1 15 Nordeste 27 Nordeste 0 -- -- 52
2020-01-07 14:00:00 15.4 4 Oeste 14 Norte 0 -- -- 54
2020-01-07 13:00:00 13.9 7 Este 15 Este 0 -- -- 59
2020-01-07 12:00:00 6.9 3 Oeste 6 Oeste 0 -- -- 78
2020-01-07 11:00:00 4.2 3 Sudeste 8 Nordeste 0 -- -- 88
2020-01-07 10:00:00 2.8 2 Este 12 Nordeste 0 -- -- 90
2020-01-07 09:00:00 2.8 2 Sudeste 10 Este 0 -- -- 90
2020-01-07 08:00:00 2.6 2 Nordeste 16 Norte 0 -- -- 90
2020-01-07 07:00:00 3.5 2 Nordeste 18 Nordeste 0 -- -- 88
2020-01-07 06:00:00 2.6 8 Nordeste 22 Nordeste 0 -- -- 98
2020-01-07 05:00:00 1 0 Calma 6 Sudeste 0 -- -- 92
2020-01-07 04:00:00 2.5 3 Noroeste 21 Nordeste 0 -- -- 89
2020-01-07 03:00:00 5.3 10 Nordeste 27 Nordeste 0 -- -- 84
2020-01-07 02:00:00 5.8 15 Nordeste 36 Este 0 -- -- 80
2020-01-07 01:00:00 4.7 7 Este 22 Este 0 -- -- 86
2020-01-07 00:00:00 4.8 5 Oeste 27 Este 0 -- -- 82
2020-01-06 23:00:00 5.7 11 Este 23 Este 0 -- -- 81
2020-01-06 22:00:00 6.1 11 Este 36 Nordeste 0 -- -- 78
2020-01-06 21:00:00 3.6 12 Nordeste 25 Norte 0 -- -- 87
2020-01-06 20:00:00 2.3 0 Calma 5 Sudeste 0 -- -- 89
2020-01-06 19:00:00 2.8 0 Calma 5 Sudeste 0 -- -- 88
2020-01-06 18:00:00 4.7 2 Este 8 Noroeste 0 -- -- 81
2020-01-06 17:00:00 7.8 3 Oeste 14 Sudoeste 0 -- -- 68
2020-01-06 16:00:00 11.2 8 Sudoeste 14 Sudoeste 0 -- -- 58
2020-01-06 15:00:00 11.9 7 Sudoeste 17 Sur 0 -- -- 54
2020-01-06 14:00:00 11 8 Sudoeste 12 Sudoeste 0 -- -- 55
2020-01-06 13:00:00 8.3 3 Sur 5 Sur 0 -- -- 70
2020-01-06 12:00:00 3.6 0 Calma 4 Oeste 0 -- -- 94
2020-01-06 11:00:00 -2.6 0 Calma 5 Este 0 -- -- 96
2020-01-06 10:00:00 -3.9 0 Calma 4 Este 0 -- -- 96